sensor_id;sensor_type;location;lat;lon;timestamp;P1;durP1;ratioP1;P2;durP2;ratioP2
37047;SDS011;23227;48.780;9.210;2022-11-20T00:00:55;9.77;;;6.47;;
37047;SDS011;23227;48.780;9.210;2022-11-20T00:03:59;11.57;;;6.17;;
37047;SDS011;23227;48.780;9.210;2022-11-20T00:07:01;10.90;;;6.03;;
37047;SDS011;23227;48.780;9.210;2022-11-20T00:10:05;12.02;;;6.32;;
37047;SDS011;23227;48.780;9.210;2022-11-20T00:13:07;14.15;;;7.25;;
37047;SDS011;23227;48.780;9.210;2022-11-20T00:16:11;10.60;;;6.07;;
37047;SDS011;23227;48.780;9.210;2022-11-20T00:19:16;13.43;;;7.27;;
37047;SDS011;23227;48.780;9.210;2022-11-20T00:22:19;12.33;;;6.83;;
37047;SDS011;23227;48.780;9.210;2022-11-20T00:25:21;12.03;;;7.23;;
37047;SDS011;23227;48.780;9.210;2022-11-20T00:28:24;12.53;;;6.63;;
37047;SDS011;23227;48.780;9.210;2022-11-20T00:31:27;14.80;;;7.03;;
37047;SDS011;23227;48.780;9.210;2022-11-20T00:34:31;15.63;;;6.75;;
37047;SDS011;23227;48.780;9.210;2022-11-20T00:37:34;17.00;;;7.83;;
37047;SDS011;23227;48.780;9.210;2022-11-20T00:40:36;13.57;;;7.17;;
37047;SDS011;23227;48.780;9.210;2022-11-20T00:43:39;12.80;;;6.83;;
37047;SDS011;23227;48.780;9.210;2022-11-20T00:46:42;12.27;;;6.40;;
37047;SDS011;23227;48.780;9.210;2022-11-20T00:49:46;14.87;;;6.97;;
37047;SDS011;23227;48.780;9.210;2022-11-20T00:52:49;7.73;;;4.50;;
37047;SDS011;23227;48.780;9.210;2022-11-20T00:55:55;4.77;;;3.20;;
37047;SDS011;23227;48.780;9.210;2022-11-20T00:58:59;5.47;;;3.50;;
37047;SDS011;23227;48.780;9.210;2022-11-20T01:02:03;4.00;;;3.00;;
37047;SDS011;23227;48.780;9.210;2022-11-20T01:05:07;4.10;;;2.90;;
37047;SDS011;23227;48.780;9.210;2022-11-20T01:08:10;4.10;;;2.60;;
37047;SDS011;23227;48.780;9.210;2022-11-20T01:11:13;5.47;;;3.13;;
37047;SDS011;23227;48.780;9.210;2022-11-20T01:14:18;3.57;;;2.80;;
37047;SDS011;23227;48.780;9.210;2022-11-20T01:17:21;4.60;;;2.10;;
37047;SDS011;23227;48.780;9.210;2022-11-20T01:20:25;3.35;;;2.13;;
37047;SDS011;23227;48.780;9.210;2022-11-20T01:23:29;2.80;;;1.90;;
37047;SDS011;23227;48.780;9.210;2022-11-20T01:26:34;3.10;;;1.93;;
37047;SDS011;23227;48.780;9.210;2022-11-20T01:29:38;2.83;;;1.93;;
37047;SDS011;23227;48.780;9.210;2022-11-20T01:32:40;4.87;;;1.80;;
37047;SDS011;23227;48.780;9.210;2022-11-20T01:35:44;3.47;;;2.00;;
37047;SDS011;23227;48.780;9.210;2022-11-20T01:38:47;6.73;;;3.13;;
37047;SDS011;23227;48.780;9.210;2022-11-20T01:41:50;5.23;;;2.60;;
37047;SDS011;23227;48.780;9.210;2022-11-20T01:48:52;7.80;;;3.77;;
37047;SDS011;23227;48.780;9.210;2022-11-20T01:51:58;8.27;;;4.17;;
37047;SDS011;23227;48.780;9.210;2022-11-20T01:55:04;10.47;;;5.60;;
37047;SDS011;23227;48.780;9.210;2022-11-20T01:58:10;8.00;;;4.77;;
37047;SDS011;23227;48.780;9.210;2022-11-20T02:01:14;9.43;;;5.50;;
37047;SDS011;23227;48.780;9.210;2022-11-20T02:04:17;7.70;;;4.65;;
37047;SDS011;23227;48.780;9.210;2022-11-20T02:07:21;4.38;;;2.63;;
37047;SDS011;23227;48.780;9.210;2022-11-20T02:10:25;6.20;;;2.33;;
37047;SDS011;23227;48.780;9.210;2022-11-20T02:13:28;7.53;;;2.85;;
37047;SDS011;23227;48.780;9.210;2022-11-20T02:16:46;7.03;;;2.20;;
37047;SDS011;23227;48.780;9.210;2022-11-20T02:19:49;2.63;;;2.00;;
37047;SDS011;23227;48.780;9.210;2022-11-20T02:22:54;2.55;;;1.60;;
37047;SDS011;23227;48.780;9.210;2022-11-20T02:26:02;2.13;;;1.73;;
37047;SDS011;23227;48.780;9.210;2022-11-20T02:29:05;3.23;;;1.63;;
37047;SDS011;23227;48.780;9.210;2022-11-20T02:32:17;1.70;;;1.57;;
37047;SDS011;23227;48.780;9.210;2022-11-20T02:35:40;4.40;;;1.80;;
37047;SDS011;23227;48.780;9.210;2022-11-20T02:38:44;2.30;;;1.60;;
37047;SDS011;23227;48.780;9.210;2022-11-20T02:41:48;5.03;;;2.33;;
37047;SDS011;23227;48.780;9.210;2022-11-20T02:44:51;3.83;;;1.93;;
37047;SDS011;23227;48.780;9.210;2022-11-20T02:47:53;3.53;;;1.67;;
37047;SDS011;23227;48.780;9.210;2022-11-20T02:50:56;4.07;;;1.93;;
37047;SDS011;23227;48.780;9.210;2022-11-20T02:53:59;3.23;;;1.63;;
37047;SDS011;23227;48.780;9.210;2022-11-20T02:57:03;2.27;;;1.43;;
37047;SDS011;23227;48.780;9.210;2022-11-20T03:00:06;2.03;;;1.50;;
37047;SDS011;23227;48.780;9.210;2022-11-20T03:03:09;1.93;;;1.60;;
37047;SDS011;23227;48.780;9.210;2022-11-20T03:06:12;4.77;;;2.23;;
37047;SDS011;23227;48.780;9.210;2022-11-20T03:09:15;2.37;;;1.50;;
37047;SDS011;23227;48.780;9.210;2022-11-20T03:12:18;3.13;;;1.87;;
37047;SDS011;23227;48.780;9.210;2022-11-20T03:15:21;5.10;;;1.60;;
37047;SDS011;23227;48.780;9.210;2022-11-20T03:18:24;2.27;;;1.60;;
37047;SDS011;23227;48.780;9.210;2022-11-20T03:21:26;2.80;;;1.60;;
37047;SDS011;23227;48.780;9.210;2022-11-20T03:24:29;2.10;;;1.60;;
37047;SDS011;23227;48.780;9.210;2022-11-20T03:27:33;3.87;;;2.03;;
37047;SDS011;23227;48.780;9.210;2022-11-20T03:30:36;4.37;;;1.70;;
37047;SDS011;23227;48.780;9.210;2022-11-20T03:33:39;2.90;;;2.20;;
37047;SDS011;23227;48.780;9.210;2022-11-20T03:36:42;3.90;;;2.28;;
37047;SDS011;23227;48.780;9.210;2022-11-20T03:39:45;3.87;;;1.80;;
37047;SDS011;23227;48.780;9.210;2022-11-20T03:42:49;4.00;;;2.20;;
37047;SDS011;23227;48.780;9.210;2022-11-20T03:45:52;3.43;;;1.90;;
37047;SDS011;23227;48.780;9.210;2022-11-20T03:48:54;3.77;;;2.40;;
37047;SDS011;23227;48.780;9.210;2022-11-20T03:51:57;2.90;;;2.03;;
37047;SDS011;23227;48.780;9.210;2022-11-20T03:55:00;4.00;;;2.33;;
37047;SDS011;23227;48.780;9.210;2022-11-20T03:58:04;2.50;;;2.13;;
37047;SDS011;23227;48.780;9.210;2022-11-20T04:01:06;9.93;;;3.07;;
37047;SDS011;23227;48.780;9.210;2022-11-20T04:04:10;3.50;;;2.80;;
37047;SDS011;23227;48.780;9.210;2022-11-20T04:07:12;4.70;;;2.23;;
37047;SDS011;23227;48.780;9.210;2022-11-20T04:10:15;5.70;;;2.53;;
37047;SDS011;23227;48.780;9.210;2022-11-20T04:13:19;4.88;;;2.20;;
37047;SDS011;23227;48.780;9.210;2022-11-20T04:16:22;3.23;;;2.30;;
37047;SDS011;23227;48.780;9.210;2022-11-20T04:19:26;3.37;;;2.23;;
37047;SDS011;23227;48.780;9.210;2022-11-20T04:22:28;2.77;;;2.10;;
37047;SDS011;23227;48.780;9.210;2022-11-20T04:25:31;4.17;;;2.60;;
37047;SDS011;23227;48.780;9.210;2022-11-20T04:28:35;2.67;;;2.10;;
37047;SDS011;23227;48.780;9.210;2022-11-20T04:31:38;4.43;;;2.57;;
37047;SDS011;23227;48.780;9.210;2022-11-20T04:34:41;3.57;;;2.20;;
37047;SDS011;23227;48.780;9.210;2022-11-20T04:37:43;3.40;;;2.27;;
37047;SDS011;23227;48.780;9.210;2022-11-20T04:40:46;2.63;;;2.07;;
37047;SDS011;23227;48.780;9.210;2022-11-20T04:43:50;2.97;;;2.27;;
37047;SDS011;23227;48.780;9.210;2022-11-20T04:46:54;2.67;;;2.03;;
37047;SDS011;23227;48.780;9.210;2022-11-20T04:49:56;3.87;;;2.20;;
37047;SDS011;23227;48.780;9.210;2022-11-20T04:52:59;2.40;;;1.83;;
37047;SDS011;23227;48.780;9.210;2022-11-20T04:56:02;5.17;;;2.10;;
37047;SDS011;23227;48.780;9.210;2022-11-20T04:59:07;4.60;;;2.30;;
37047;SDS011;23227;48.780;9.210;2022-11-20T05:02:10;5.03;;;2.47;;
37047;SDS011;23227;48.780;9.210;2022-11-20T05:05:13;4.67;;;3.30;;
37047;SDS011;23227;48.780;9.210;2022-11-20T05:08:15;7.63;;;2.67;;
37047;SDS011;23227;48.780;9.210;2022-11-20T05:11:19;3.10;;;2.50;;
37047;SDS011;23227;48.780;9.210;2022-11-20T05:14:23;2.60;;;2.00;;
37047;SDS011;23227;48.780;9.210;2022-11-20T05:17:26;4.30;;;1.80;;
37047;SDS011;23227;48.780;9.210;2022-11-20T05:20:29;5.87;;;2.97;;
37047;SDS011;23227;48.780;9.210;2022-11-20T05:23:32;2.03;;;1.70;;
37047;SDS011;23227;48.780;9.210;2022-11-20T05:26:34;4.47;;;2.47;;
37047;SDS011;23227;48.780;9.210;2022-11-20T05:29:38;4.40;;;2.53;;
37047;SDS011;23227;48.780;9.210;2022-11-20T05:32:41;3.60;;;2.57;;
37047;SDS011;23227;48.780;9.210;2022-11-20T05:35:44;2.53;;;1.60;;
37047;SDS011;23227;48.780;9.210;2022-11-20T05:38:47;4.47;;;2.20;;
37047;SDS011;23227;48.780;9.210;2022-11-20T05:41:51;3.57;;;1.97;;
37047;SDS011;23227;48.780;9.210;2022-11-20T05:45:15;5.10;;;3.00;;
37047;SDS011;23227;48.780;9.210;2022-11-20T05:48:18;2.63;;;2.30;;
37047;SDS011;23227;48.780;9.210;2022-11-20T05:51:21;4.13;;;2.20;;
37047;SDS011;23227;48.780;9.210;2022-11-20T05:54:23;5.30;;;2.23;;
37047;SDS011;23227;48.780;9.210;2022-11-20T05:57:26;3.93;;;2.00;;
37047;SDS011;23227;48.780;9.210;2022-11-20T06:00:30;2.80;;;2.30;;
37047;SDS011;23227;48.780;9.210;2022-11-20T06:03:33;4.03;;;2.33;;
37047;SDS011;23227;48.780;9.210;2022-11-20T06:06:35;3.60;;;2.00;;
37047;SDS011;23227;48.780;9.210;2022-11-20T06:09:38;2.33;;;2.00;;
37047;SDS011;23227;48.780;9.210;2022-11-20T06:12:40;2.53;;;1.70;;
37047;SDS011;23227;48.780;9.210;2022-11-20T06:15:48;4.33;;;1.90;;
37047;SDS011;23227;48.780;9.210;2022-11-20T06:18:51;7.20;;;3.77;;
37047;SDS011;23227;48.780;9.210;2022-11-20T06:21:54;2.63;;;1.60;;
37047;SDS011;23227;48.780;9.210;2022-11-20T06:24:57;2.67;;;1.60;;
37047;SDS011;23227;48.780;9.210;2022-11-20T06:27:59;3.20;;;1.90;;
37047;SDS011;23227;48.780;9.210;2022-11-20T06:31:04;3.00;;;1.83;;
37047;SDS011;23227;48.780;9.210;2022-11-20T06:34:07;2.07;;;1.60;;
37047;SDS011;23227;48.780;9.210;2022-11-20T06:37:10;2.50;;;1.55;;
37047;SDS011;23227;48.780;9.210;2022-11-20T06:40:13;3.27;;;1.80;;
37047;SDS011;23227;48.780;9.210;2022-11-20T06:43:15;3.23;;;1.40;;
37047;SDS011;23227;48.780;9.210;2022-11-20T06:46:20;3.83;;;1.60;;
37047;SDS011;23227;48.780;9.210;2022-11-20T06:49:22;1.87;;;1.30;;
37047;SDS011;23227;48.780;9.210;2022-11-20T06:52:26;1.80;;;1.40;;
37047;SDS011;23227;48.780;9.210;2022-11-20T06:55:28;2.33;;;1.53;;
37047;SDS011;23227;48.780;9.210;2022-11-20T06:58:32;1.83;;;1.38;;
37047;SDS011;23227;48.780;9.210;2022-11-20T07:01:36;2.10;;;1.23;;
37047;SDS011;23227;48.780;9.210;2022-11-20T07:04:39;2.30;;;1.60;;
37047;SDS011;23227;48.780;9.210;2022-11-20T07:07:42;3.73;;;1.40;;
37047;SDS011;23227;48.780;9.210;2022-11-20T07:10:44;2.67;;;1.50;;
37047;SDS011;23227;48.780;9.210;2022-11-20T07:13:47;2.17;;;1.70;;
37047;SDS011;23227;48.780;9.210;2022-11-20T07:16:51;4.00;;;1.73;;
37047;SDS011;23227;48.780;9.210;2022-11-20T07:19:53;2.83;;;1.40;;
37047;SDS011;23227;48.780;9.210;2022-11-20T07:22:56;3.47;;;1.47;;
37047;SDS011;23227;48.780;9.210;2022-11-20T07:26:02;2.13;;;1.30;;
37047;SDS011;23227;48.780;9.210;2022-11-20T07:29:05;2.93;;;1.37;;
37047;SDS011;23227;48.780;9.210;2022-11-20T07:32:09;2.50;;;1.53;;
37047;SDS011;23227;48.780;9.210;2022-11-20T07:35:12;1.97;;;1.30;;
37047;SDS011;23227;48.780;9.210;2022-11-20T07:38:14;1.45;;;1.15;;
37047;SDS011;23227;48.780;9.210;2022-11-20T07:41:17;4.47;;;1.93;;
37047;SDS011;23227;48.780;9.210;2022-11-20T07:44:20;1.63;;;1.30;;
37047;SDS011;23227;48.780;9.210;2022-11-20T07:47:24;1.73;;;1.27;;
37047;SDS011;23227;48.780;9.210;2022-11-20T07:50:27;2.90;;;1.20;;
37047;SDS011;23227;48.780;9.210;2022-11-20T07:53:30;1.90;;;1.20;;
37047;SDS011;23227;48.780;9.210;2022-11-20T07:56:32;4.40;;;1.27;;
37047;SDS011;23227;48.780;9.210;2022-11-20T07:59:35;3.30;;;1.20;;
37047;SDS011;23227;48.780;9.210;2022-11-20T08:02:39;2.57;;;1.27;;
37047;SDS011;23227;48.780;9.210;2022-11-20T08:05:42;2.53;;;1.30;;
37047;SDS011;23227;48.780;9.210;2022-11-20T08:08:45;2.20;;;1.30;;
37047;SDS011;23227;48.780;9.210;2022-11-20T08:11:47;1.97;;;1.50;;
37047;SDS011;23227;48.780;9.210;2022-11-20T08:15:08;4.27;;;1.20;;
37047;SDS011;23227;48.780;9.210;2022-11-20T08:18:15;2.03;;;1.30;;
37047;SDS011;23227;48.780;9.210;2022-11-20T08:21:34;2.03;;;1.37;;
37047;SDS011;23227;48.780;9.210;2022-11-20T08:24:38;1.67;;;1.40;;
37047;SDS011;23227;48.780;9.210;2022-11-20T08:27:41;1.63;;;0.93;;
37047;SDS011;23227;48.780;9.210;2022-11-20T08:30:44;1.53;;;1.10;;
37047;SDS011;23227;48.780;9.210;2022-11-20T08:33:48;1.45;;;1.10;;
37047;SDS011;23227;48.780;9.210;2022-11-20T08:36:51;1.70;;;1.00;;
37047;SDS011;23227;48.780;9.210;2022-11-20T08:39:53;1.47;;;1.00;;
37047;SDS011;23227;48.780;9.210;2022-11-20T08:42:58;3.27;;;1.40;;
37047;SDS011;23227;48.780;9.210;2022-11-20T08:46:01;1.77;;;1.10;;
37047;SDS011;23227;48.780;9.210;2022-11-20T08:49:05;1.07;;;0.77;;
37047;SDS011;23227;48.780;9.210;2022-11-20T08:52:08;2.00;;;1.10;;
37047;SDS011;23227;48.780;9.210;2022-11-20T08:55:11;0.87;;;0.73;;
37047;SDS011;23227;48.780;9.210;2022-11-20T08:58:14;1.73;;;1.45;;
37047;SDS011;23227;48.780;9.210;2022-11-20T09:01:16;2.50;;;1.10;;
37047;SDS011;23227;48.780;9.210;2022-11-20T09:04:21;3.03;;;0.90;;
37047;SDS011;23227;48.780;9.210;2022-11-20T09:07:24;1.37;;;1.20;;
37047;SDS011;23227;48.780;9.210;2022-11-20T09:10:27;0.75;;;0.70;;
37047;SDS011;23227;48.780;9.210;2022-11-20T09:13:30;1.77;;;1.20;;
37047;SDS011;23227;48.780;9.210;2022-11-20T09:16:33;1.58;;;1.08;;
37047;SDS011;23227;48.780;9.210;2022-11-20T09:19:37;3.20;;;1.10;;
37047;SDS011;23227;48.780;9.210;2022-11-20T09:22:40;1.37;;;1.10;;
37047;SDS011;23227;48.780;9.210;2022-11-20T09:25:43;0.70;;;0.60;;
37047;SDS011;23227;48.780;9.210;2022-11-20T09:28:46;1.08;;;0.90;;
37047;SDS011;23227;48.780;9.210;2022-11-20T09:31:48;1.10;;;0.80;;
37047;SDS011;23227;48.780;9.210;2022-11-20T09:34:52;0.80;;;0.80;;
37047;SDS011;23227;48.780;9.210;2022-11-20T09:37:55;0.80;;;0.60;;
37047;SDS011;23227;48.780;9.210;2022-11-20T09:40:58;1.58;;;0.90;;
37047;SDS011;23227;48.780;9.210;2022-11-20T09:44:06;1.23;;;0.87;;
37047;SDS011;23227;48.780;9.210;2022-11-20T09:47:20;2.50;;;0.73;;
37047;SDS011;23227;48.780;9.210;2022-11-20T09:50:31;0.60;;;0.53;;
37047;SDS011;23227;48.780;9.210;2022-11-20T09:53:39;0.80;;;0.50;;
37047;SDS011;23227;48.780;9.210;2022-11-20T09:56:49;0.68;;;0.60;;
37047;SDS011;23227;48.780;9.210;2022-11-20T09:59:54;1.00;;;0.80;;
37047;SDS011;23227;48.780;9.210;2022-11-20T10:02:59;0.63;;;0.57;;
37047;SDS011;23227;48.780;9.210;2022-11-20T10:06:05;0.50;;;0.50;;
37047;SDS011;23227;48.780;9.210;2022-11-20T10:09:16;0.73;;;0.70;;
37047;SDS011;23227;48.780;9.210;2022-11-20T10:12:25;0.80;;;0.70;;
37047;SDS011;23227;48.780;9.210;2022-11-20T10:15:32;0.57;;;0.50;;
37047;SDS011;23227;48.780;9.210;2022-11-20T10:18:42;0.70;;;0.50;;
37047;SDS011;23227;48.780;9.210;2022-11-20T10:21:55;0.53;;;0.53;;
37047;SDS011;23227;48.780;9.210;2022-11-20T10:25:03;1.13;;;0.60;;
37047;SDS011;23227;48.780;9.210;2022-11-20T10:28:23;1.27;;;0.70;;
37047;SDS011;23227;48.780;9.210;2022-11-20T10:31:31;0.53;;;0.53;;
37047;SDS011;23227;48.780;9.210;2022-11-20T10:34:38;0.90;;;0.80;;
37047;SDS011;23227;48.780;9.210;2022-11-20T10:37:49;1.23;;;0.87;;
37047;SDS011;23227;48.780;9.210;2022-11-20T10:40:56;2.77;;;0.80;;
37047;SDS011;23227;48.780;9.210;2022-11-20T10:44:21;1.40;;;0.87;;
37047;SDS011;23227;48.780;9.210;2022-11-20T10:47:44;0.55;;;0.52;;
37047;SDS011;23227;48.780;9.210;2022-11-20T10:50:59;1.60;;;0.90;;
37047;SDS011;23227;48.780;9.210;2022-11-20T10:54:13;3.13;;;0.77;;
37047;SDS011;23227;48.780;9.210;2022-11-20T10:57:24;0.87;;;0.70;;
37047;SDS011;23227;48.780;9.210;2022-11-20T11:00:34;1.13;;;0.77;;
37047;SDS011;23227;48.780;9.210;2022-11-20T11:03:37;0.95;;;0.85;;
37047;SDS011;23227;48.780;9.210;2022-11-20T11:06:40;1.83;;;0.97;;
37047;SDS011;23227;48.780;9.210;2022-11-20T11:09:48;3.03;;;1.90;;
37047;SDS011;23227;48.780;9.210;2022-11-20T11:12:51;2.50;;;1.60;;
37047;SDS011;23227;48.780;9.210;2022-11-20T11:15:54;1.83;;;0.87;;
37047;SDS011;23227;48.780;9.210;2022-11-20T11:19:03;1.70;;;0.90;;
37047;SDS011;23227;48.780;9.210;2022-11-20T11:22:06;2.00;;;1.20;;
37047;SDS011;23227;48.780;9.210;2022-11-20T11:25:22;2.97;;;1.23;;
37047;SDS011;23227;48.780;9.210;2022-11-20T11:28:30;2.07;;;1.10;;
37047;SDS011;23227;48.780;9.210;2022-11-20T11:31:33;3.05;;;1.60;;
37047;SDS011;23227;48.780;9.210;2022-11-20T11:34:36;3.03;;;1.60;;
37047;SDS011;23227;48.780;9.210;2022-11-20T11:37:39;4.80;;;1.92;;
37047;SDS011;23227;48.780;9.210;2022-11-20T11:40:43;3.10;;;1.77;;
37047;SDS011;23227;48.780;9.210;2022-11-20T11:43:49;1.70;;;1.00;;
37047;SDS011;23227;48.780;9.210;2022-11-20T11:47:16;3.17;;;1.37;;
37047;SDS011;23227;48.780;9.210;2022-11-20T11:50:23;2.07;;;1.23;;
37047;SDS011;23227;48.780;9.210;2022-11-20T11:56:30;1.53;;;1.10;;
37047;SDS011;23227;48.780;9.210;2022-11-20T11:59:39;3.27;;;1.20;;
37047;SDS011;23227;48.780;9.210;2022-11-20T12:02:49;3.40;;;1.17;;
37047;SDS011;23227;48.780;9.210;2022-11-20T12:05:59;3.00;;;1.10;;
37047;SDS011;23227;48.780;9.210;2022-11-20T12:09:05;2.70;;;1.40;;
37047;SDS011;23227;48.780;9.210;2022-11-20T12:12:13;4.17;;;1.50;;
37047;SDS011;23227;48.780;9.210;2022-11-20T12:15:24;1.80;;;0.80;;
37047;SDS011;23227;48.780;9.210;2022-11-20T12:18:29;1.80;;;0.90;;
37047;SDS011;23227;48.780;9.210;2022-11-20T12:21:33;2.42;;;1.00;;
37047;SDS011;23227;48.780;9.210;2022-11-20T12:24:42;2.97;;;0.90;;
37047;SDS011;23227;48.780;9.210;2022-11-20T12:27:54;1.87;;;0.83;;
37047;SDS011;23227;48.780;9.210;2022-11-20T12:31:09;0.80;;;0.77;;
37047;SDS011;23227;48.780;9.210;2022-11-20T12:34:32;5.03;;;1.13;;
37047;SDS011;23227;48.780;9.210;2022-11-20T12:37:57;1.87;;;0.90;;
37047;SDS011;23227;48.780;9.210;2022-11-20T12:41:11;0.60;;;0.60;;
37047;SDS011;23227;48.780;9.210;2022-11-20T12:44:44;1.13;;;0.80;;
37047;SDS011;23227;48.780;9.210;2022-11-20T12:48:17;4.03;;;2.47;;
37047;SDS011;23227;48.780;9.210;2022-11-20T12:55:16;1.80;;;0.70;;
37047;SDS011;23227;48.780;9.210;2022-11-20T12:58:27;1.70;;;0.70;;
37047;SDS011;23227;48.780;9.210;2022-11-20T13:01:37;2.73;;;0.80;;
37047;SDS011;23227;48.780;9.210;2022-11-20T13:04:55;2.97;;;0.70;;
37047;SDS011;23227;48.780;9.210;2022-11-20T13:08:08;3.57;;;0.60;;
37047;SDS011;23227;48.780;9.210;2022-11-20T13:11:18;1.67;;;0.40;;
37047;SDS011;23227;48.780;9.210;2022-11-20T13:14:28;1.40;;;0.43;;
37047;SDS011;23227;48.780;9.210;2022-11-20T13:17:36;2.87;;;0.50;;
37047;SDS011;23227;48.780;9.210;2022-11-20T13:20:43;2.40;;;0.70;;
37047;SDS011;23227;48.780;9.210;2022-11-20T13:26:58;1.23;;;0.70;;
37047;SDS011;23227;48.780;9.210;2022-11-20T13:30:11;1.35;;;0.88;;
37047;SDS011;23227;48.780;9.210;2022-11-20T13:33:23;2.27;;;1.20;;
37047;SDS011;23227;48.780;9.210;2022-11-20T13:36:29;1.77;;;0.97;;
37047;SDS011;23227;48.780;9.210;2022-11-20T13:39:34;0.90;;;0.53;;
37047;SDS011;23227;48.780;9.210;2022-11-20T13:42:39;1.90;;;0.80;;
37047;SDS011;23227;48.780;9.210;2022-11-20T13:45:42;0.90;;;0.40;;
37047;SDS011;23227;48.780;9.210;2022-11-20T13:48:58;1.13;;;0.50;;
37047;SDS011;23227;48.780;9.210;2022-11-20T13:52:05;1.03;;;0.60;;
37047;SDS011;23227;48.780;9.210;2022-11-20T13:55:23;1.27;;;0.50;;
37047;SDS011;23227;48.780;9.210;2022-11-20T13:58:36;0.93;;;0.50;;
37047;SDS011;23227;48.780;9.210;2022-11-20T14:01:45;2.73;;;0.70;;
37047;SDS011;23227;48.780;9.210;2022-11-20T14:04:50;1.90;;;0.75;;
37047;SDS011;23227;48.780;9.210;2022-11-20T14:07:54;1.60;;;0.70;;
37047;SDS011;23227;48.780;9.210;2022-11-20T14:11:05;1.42;;;0.60;;
37047;SDS011;23227;48.780;9.210;2022-11-20T14:14:13;1.23;;;0.50;;
37047;SDS011;23227;48.780;9.210;2022-11-20T14:17:18;4.00;;;0.83;;
37047;SDS011;23227;48.780;9.210;2022-11-20T14:20:26;1.23;;;0.80;;
37047;SDS011;23227;48.780;9.210;2022-11-20T14:23:29;3.30;;;0.70;;
37047;SDS011;23227;48.780;9.210;2022-11-20T14:26:32;2.17;;;0.63;;
37047;SDS011;23227;48.780;9.210;2022-11-20T14:29:36;3.53;;;1.02;;
37047;SDS011;23227;48.780;9.210;2022-11-20T14:32:39;0.60;;;0.60;;
37047;SDS011;23227;48.780;9.210;2022-11-20T14:35:45;1.93;;;1.03;;
37047;SDS011;23227;48.780;9.210;2022-11-20T14:38:49;1.57;;;0.97;;
37047;SDS011;23227;48.780;9.210;2022-11-20T14:41:53;2.08;;;1.08;;
37047;SDS011;23227;48.780;9.210;2022-11-20T14:44:56;1.13;;;0.82;;
37047;SDS011;23227;48.780;9.210;2022-11-20T14:48:00;6.17;;;0.90;;
37047;SDS011;23227;48.780;9.210;2022-11-20T14:51:08;4.17;;;0.90;;
37047;SDS011;23227;48.780;9.210;2022-11-20T14:54:12;0.93;;;0.80;;
37047;SDS011;23227;48.780;9.210;2022-11-20T14:57:21;1.93;;;0.90;;
37047;SDS011;23227;48.780;9.210;2022-11-20T15:00:26;2.53;;;0.80;;
37047;SDS011;23227;48.780;9.210;2022-11-20T15:03:33;4.80;;;1.15;;
37047;SDS011;23227;48.780;9.210;2022-11-20T15:06:48;4.40;;;1.10;;
37047;SDS011;23227;48.780;9.210;2022-11-20T15:10:02;1.43;;;0.93;;
37047;SDS011;23227;48.780;9.210;2022-11-20T15:13:10;4.13;;;0.80;;
37047;SDS011;23227;48.780;9.210;2022-11-20T15:16:16;2.67;;;1.10;;
37047;SDS011;23227;48.780;9.210;2022-11-20T15:19:20;2.73;;;1.20;;
37047;SDS011;23227;48.780;9.210;2022-11-20T15:22:25;2.03;;;0.80;;
37047;SDS011;23227;48.780;9.210;2022-11-20T15:25:28;3.77;;;1.27;;
37047;SDS011;23227;48.780;9.210;2022-11-20T15:28:31;3.45;;;1.63;;
37047;SDS011;23227;48.780;9.210;2022-11-20T15:31:36;2.37;;;1.10;;
37047;SDS011;23227;48.780;9.210;2022-11-20T15:34:39;1.95;;;1.08;;
37047;SDS011;23227;48.780;9.210;2022-11-20T15:37:43;4.57;;;1.20;;
37047;SDS011;23227;48.780;9.210;2022-11-20T15:40:46;3.50;;;1.10;;
37047;SDS011;23227;48.780;9.210;2022-11-20T15:43:48;2.23;;;1.07;;
37047;SDS011;23227;48.780;9.210;2022-11-20T15:46:51;1.90;;;1.40;;
37047;SDS011;23227;48.780;9.210;2022-11-20T15:49:54;3.33;;;1.17;;
37047;SDS011;23227;48.780;9.210;2022-11-20T15:52:58;2.10;;;0.90;;
37047;SDS011;23227;48.780;9.210;2022-11-20T15:56:01;1.73;;;1.10;;
37047;SDS011;23227;48.780;9.210;2022-11-20T15:59:04;4.90;;;1.08;;
37047;SDS011;23227;48.780;9.210;2022-11-20T16:02:08;1.90;;;1.30;;
37047;SDS011;23227;48.780;9.210;2022-11-20T16:05:19;3.10;;;1.40;;
37047;SDS011;23227;48.780;9.210;2022-11-20T16:08:25;4.50;;;1.70;;
37047;SDS011;23227;48.780;9.210;2022-11-20T16:11:28;2.90;;;1.60;;
37047;SDS011;23227;48.780;9.210;2022-11-20T16:14:30;3.37;;;1.57;;
37047;SDS011;23227;48.780;9.210;2022-11-20T16:17:51;3.47;;;1.90;;
37047;SDS011;23227;48.780;9.210;2022-11-20T16:20:54;4.40;;;2.30;;
37047;SDS011;23227;48.780;9.210;2022-11-20T16:23:58;5.20;;;2.47;;
37047;SDS011;23227;48.780;9.210;2022-11-20T16:27:02;5.37;;;2.23;;
37047;SDS011;23227;48.780;9.210;2022-11-20T16:30:05;3.03;;;1.97;;
37047;SDS011;23227;48.780;9.210;2022-11-20T16:33:09;4.13;;;1.97;;
37047;SDS011;23227;48.780;9.210;2022-11-20T16:36:13;2.90;;;1.53;;
37047;SDS011;23227;48.780;9.210;2022-11-20T16:39:18;2.00;;;1.23;;
37047;SDS011;23227;48.780;9.210;2022-11-20T16:42:24;3.83;;;1.50;;
37047;SDS011;23227;48.780;9.210;2022-11-20T16:45:27;3.10;;;1.93;;
37047;SDS011;23227;48.780;9.210;2022-11-20T16:48:34;2.00;;;1.20;;
37047;SDS011;23227;48.780;9.210;2022-11-20T16:51:36;3.93;;;1.40;;
37047;SDS011;23227;48.780;9.210;2022-11-20T16:54:40;7.80;;;3.43;;
37047;SDS011;23227;48.780;9.210;2022-11-20T16:57:43;2.33;;;1.47;;
37047;SDS011;23227;48.780;9.210;2022-11-20T17:00:46;3.50;;;1.60;;
37047;SDS011;23227;48.780;9.210;2022-11-20T17:03:55;4.57;;;1.60;;
37047;SDS011;23227;48.780;9.210;2022-11-20T17:06:59;1.70;;;1.50;;
37047;SDS011;23227;48.780;9.210;2022-11-20T17:10:09;3.33;;;1.60;;
37047;SDS011;23227;48.780;9.210;2022-11-20T17:13:12;2.67;;;1.60;;
37047;SDS011;23227;48.780;9.210;2022-11-20T17:16:15;2.70;;;1.70;;
37047;SDS011;23227;48.780;9.210;2022-11-20T17:19:20;5.07;;;1.60;;
37047;SDS011;23227;48.780;9.210;2022-11-20T17:22:22;2.77;;;1.57;;
37047;SDS011;23227;48.780;9.210;2022-11-20T17:25:26;2.53;;;1.53;;
37047;SDS011;23227;48.780;9.210;2022-11-20T17:28:29;2.73;;;1.97;;
37047;SDS011;23227;48.780;9.210;2022-11-20T17:31:33;2.10;;;1.90;;
37047;SDS011;23227;48.780;9.210;2022-11-20T17:34:36;2.70;;;1.50;;
37047;SDS011;23227;48.780;9.210;2022-11-20T17:37:38;5.83;;;2.23;;
37047;SDS011;23227;48.780;9.210;2022-11-20T17:40:42;4.07;;;2.00;;
37047;SDS011;23227;48.780;9.210;2022-11-20T17:43:46;5.77;;;2.30;;
37047;SDS011;23227;48.780;9.210;2022-11-20T17:46:49;5.53;;;1.90;;
37047;SDS011;23227;48.780;9.210;2022-11-20T17:49:52;3.90;;;1.63;;
37047;SDS011;23227;48.780;9.210;2022-11-20T17:52:55;4.30;;;1.55;;
37047;SDS011;23227;48.780;9.210;2022-11-20T17:56:00;3.85;;;2.30;;
37047;SDS011;23227;48.780;9.210;2022-11-20T17:59:20;2.83;;;1.80;;
37047;SDS011;23227;48.780;9.210;2022-11-20T18:02:23;4.18;;;1.98;;
37047;SDS011;23227;48.780;9.210;2022-11-20T18:05:26;2.13;;;1.50;;
37047;SDS011;23227;48.780;9.210;2022-11-20T18:08:28;9.20;;;1.50;;
37047;SDS011;23227;48.780;9.210;2022-11-20T18:11:33;2.60;;;1.50;;
37047;SDS011;23227;48.780;9.210;2022-11-20T18:14:38;3.77;;;1.80;;
37047;SDS011;23227;48.780;9.210;2022-11-20T18:17:43;2.33;;;1.40;;
37047;SDS011;23227;48.780;9.210;2022-11-20T18:20:46;2.60;;;1.20;;
37047;SDS011;23227;48.780;9.210;2022-11-20T18:23:54;2.70;;;1.07;;
37047;SDS011;23227;48.780;9.210;2022-11-20T18:26:58;3.03;;;1.35;;
37047;SDS011;23227;48.780;9.210;2022-11-20T18:30:01;2.87;;;1.10;;
37047;SDS011;23227;48.780;9.210;2022-11-20T18:33:05;3.20;;;1.20;;
37047;SDS011;23227;48.780;9.210;2022-11-20T18:36:08;2.25;;;1.10;;
37047;SDS011;23227;48.780;9.210;2022-11-20T18:42:16;2.57;;;1.47;;
37047;SDS011;23227;48.780;9.210;2022-11-20T18:45:36;1.47;;;1.37;;
37047;SDS011;23227;48.780;9.210;2022-11-20T18:48:39;1.43;;;1.00;;
37047;SDS011;23227;48.780;9.210;2022-11-20T18:51:42;3.37;;;1.10;;
37047;SDS011;23227;48.780;9.210;2022-11-20T18:54:45;3.25;;;1.40;;